CheckWX is a tool to help pilots better visualize weather data.  It is not intended as a substitute for an official pre-flight weather briefing.

19:03:24 UTC

EDMA TAF
Augsburg Airport
Augsburg, Germany
TAF EDMA 221700Z 2218/2303 36007KT 9999 SCT040 BECMG 2219/2221 07008KT

Feb-22@
18:00 UTC

Feb-22 @ 18:00 UTC

Feb-22@
19:00 UTC

Feb-22 @ 19:00 UTC

TAF EDMA 221700Z 2218/2303 36007KT 9999 SCT040

Expired

Wind
  • 360° at 7 KTS
Cloud Levels
  • Scattered at 4,000' AGL

Feb-22@
19:00 UTC

Feb-22 @ 19:00 UTC

Feb-23@
03:00 UTC

Feb-23 @ 03:00 UTC

BECMG 2219/2221 07008KT

Becoming

BecomingConditions expected by Fri, Feb 22, 2019 @ 21:00 UTC

Wind
  • 070° at 8 KTS
Cloud Levels
  • Scattered at 4,000' AGL